sensor_id;sensor_type;location;lat;lon;timestamp;pressure;altitude;pressure_sealevel;temperature;humidity
42591;BME280;28218;53.342;-6.216;2023-01-08T00:01:16;98224.97;;;8.54;100.00
42591;BME280;28218;53.342;-6.216;2023-01-08T00:03:44;98234.66;;;8.54;100.00
42591;BME280;28218;53.342;-6.216;2023-01-08T00:06:15;98230.81;;;8.56;100.00
42591;BME280;28218;53.342;-6.216;2023-01-08T00:08:46;98240.72;;;8.54;100.00
42591;BME280;28218;53.342;-6.216;2023-01-08T00:11:14;98240.28;;;8.57;100.00
42591;BME280;28218;53.342;-6.216;2023-01-08T00:13:43;98242.91;;;8.57;100.00
42591;BME280;28218;53.342;-6.216;2023-01-08T00:16:16;98234.44;;;8.55;100.00
42591;BME280;28218;53.342;-6.216;2023-01-08T00:18:45;98219.94;;;8.53;100.00
42591;BME280;28218;53.342;-6.216;2023-01-08T00:21:13;98242.53;;;8.54;100.00
42591;BME280;28218;53.342;-6.216;2023-01-08T00:23:41;98244.59;;;8.52;100.00
42591;BME280;28218;53.342;-6.216;2023-01-08T00:26:10;98238.16;;;8.48;100.00
42591;BME280;28218;53.342;-6.216;2023-01-08T00:28:38;98233.47;;;8.50;100.00
42591;BME280;28218;53.342;-6.216;2023-01-08T00:31:09;98243.97;;;8.50;100.00
42591;BME280;28218;53.342;-6.216;2023-01-08T00:33:39;98243.25;;;8.42;100.00
42591;BME280;28218;53.342;-6.216;2023-01-08T00:36:10;98264.25;;;8.42;100.00
42591;BME280;28218;53.342;-6.216;2023-01-08T00:38:39;98267.22;;;8.46;100.00
42591;BME280;28218;53.342;-6.216;2023-01-08T00:41:08;98272.47;;;8.46;100.00
42591;BME280;28218;53.342;-6.216;2023-01-08T00:43:36;98288.44;;;8.44;100.00
42591;BME280;28218;53.342;-6.216;2023-01-08T00:46:04;98284.41;;;8.42;100.00
42591;BME280;28218;53.342;-6.216;2023-01-08T00:48:35;98278.75;;;8.45;100.00
42591;BME280;28218;53.342;-6.216;2023-01-08T00:51:06;98277.53;;;8.48;100.00
42591;BME280;28218;53.342;-6.216;2023-01-08T00:53:35;98283.97;;;8.45;100.00
42591;BME280;28218;53.342;-6.216;2023-01-08T00:56:06;98280.56;;;8.44;100.00
42591;BME280;28218;53.342;-6.216;2023-01-08T00:58:35;98297.09;;;8.45;100.00
42591;BME280;28218;53.342;-6.216;2023-01-08T01:01:08;98288.06;;;8.41;100.00
42591;BME280;28218;53.342;-6.216;2023-01-08T01:03:37;98294.91;;;8.42;100.00
42591;BME280;28218;53.342;-6.216;2023-01-08T01:06:07;98280.78;;;8.43;100.00
42591;BME280;28218;53.342;-6.216;2023-01-08T01:08:35;98293.09;;;8.42;100.00
42591;BME280;28218;53.342;-6.216;2023-01-08T01:11:08;98287.25;;;8.40;100.00
42591;BME280;28218;53.342;-6.216;2023-01-08T01:13:36;98289.88;;;8.40;100.00
42591;BME280;28218;53.342;-6.216;2023-01-08T01:16:05;98289.66;;;8.42;100.00
42591;BME280;28218;53.342;-6.216;2023-01-08T01:18:33;98294.09;;;8.41;100.00
42591;BME280;28218;53.342;-6.216;2023-01-08T01:21:01;98293.09;;;8.42;100.00
42591;BME280;28218;53.342;-6.216;2023-01-08T01:23:31;98276.34;;;8.43;100.00
42591;BME280;28218;53.342;-6.216;2023-01-08T01:26:00;98275.53;;;8.43;100.00
42591;BME280;28218;53.342;-6.216;2023-01-08T01:28:28;98283.59;;;8.41;100.00
42591;BME280;28218;53.342;-6.216;2023-01-08T01:30:56;98276.75;;;8.40;100.00
42591;BME280;28218;53.342;-6.216;2023-01-08T01:33:24;98279.34;;;8.47;100.00
42591;BME280;28218;53.342;-6.216;2023-01-08T01:36:00;98284.78;;;8.45;100.00
42591;BME280;28218;53.342;-6.216;2023-01-08T01:38:28;98300.97;;;8.42;100.00
42591;BME280;28218;53.342;-6.216;2023-01-08T01:40:58;98300.16;;;8.42;100.00
42591;BME280;28218;53.342;-6.216;2023-01-08T01:43:35;98286.84;;;8.43;100.00
42591;BME280;28218;53.342;-6.216;2023-01-08T01:46:05;98294.09;;;8.41;100.00
42591;BME280;28218;53.342;-6.216;2023-01-08T01:48:43;98295.72;;;8.42;100.00
42591;BME280;28218;53.342;-6.216;2023-01-08T01:51:13;98296.72;;;8.41;100.00
42591;BME280;28218;53.342;-6.216;2023-01-08T01:53:41;98296.16;;;8.39;100.00
42591;BME280;28218;53.342;-6.216;2023-01-08T01:56:11;98296.56;;;8.36;100.00
42591;BME280;28218;53.342;-6.216;2023-01-08T01:58:39;98311.69;;;8.34;100.00
42591;BME280;28218;53.342;-6.216;2023-01-08T02:01:08;98305.03;;;8.32;100.00
42591;BME280;28218;53.342;-6.216;2023-01-08T02:03:38;98296.38;;;8.31;100.00
42591;BME280;28218;53.342;-6.216;2023-01-08T02:06:14;98301.03;;;8.29;100.00
42591;BME280;28218;53.342;-6.216;2023-01-08T02:08:55;98310.13;;;8.27;100.00
42591;BME280;28218;53.342;-6.216;2023-01-08T02:11:35;98323.22;;;8.27;100.00
42591;BME280;28218;53.342;-6.216;2023-01-08T02:14:12;98315.19;;;8.28;100.00
42591;BME280;28218;53.342;-6.216;2023-01-08T02:16:48;98320.63;;;8.27;100.00
42591;BME280;28218;53.342;-6.216;2023-01-08T02:19:33;98325.47;;;8.23;100.00
42591;BME280;28218;53.342;-6.216;2023-01-08T02:22:13;98319.66;;;8.21;100.00
42591;BME280;28218;53.342;-6.216;2023-01-08T02:24:53;98318.44;;;8.17;100.00
42591;BME280;28218;53.342;-6.216;2023-01-08T02:27:27;98308.13;;;8.22;100.00
42591;BME280;28218;53.342;-6.216;2023-01-08T02:29:57;98323.22;;;8.27;100.00
42591;BME280;28218;53.342;-6.216;2023-01-08T02:32:25;98318.22;;;8.25;100.00
42591;BME280;28218;53.342;-6.216;2023-01-08T02:34:54;98319.41;;;8.23;100.00
42591;BME280;28218;53.342;-6.216;2023-01-08T02:37:22;98322.03;;;8.23;100.00
42591;BME280;28218;53.342;-6.216;2023-01-08T02:40:04;98342.22;;;8.22;100.00
42591;BME280;28218;53.342;-6.216;2023-01-08T02:42:41;98327.94;;;8.18;100.00
42591;BME280;28218;53.342;-6.216;2023-01-08T02:45:20;98324.50;;;8.17;100.00
42591;BME280;28218;53.342;-6.216;2023-01-08T02:47:55;98314.00;;;8.17;100.00
42591;BME280;28218;53.342;-6.216;2023-01-08T02:50:30;98334.81;;;8.19;100.00
42591;BME280;28218;53.342;-6.216;2023-01-08T02:53:03;98309.41;;;8.13;100.00
42591;BME280;28218;53.342;-6.216;2023-01-08T02:55:35;98301.53;;;8.13;100.00
42591;BME280;28218;53.342;-6.216;2023-01-08T02:58:06;98302.53;;;8.12;100.00
42591;BME280;28218;53.342;-6.216;2023-01-08T03:00:34;98315.44;;;8.13;100.00
42591;BME280;28218;53.342;-6.216;2023-01-08T03:03:08;98310.41;;;8.12;100.00
42591;BME280;28218;53.342;-6.216;2023-01-08T03:05:39;98304.38;;;8.11;100.00
42591;BME280;28218;53.342;-6.216;2023-01-08T03:08:09;98310.03;;;8.08;100.00
42591;BME280;28218;53.342;-6.216;2023-01-08T03:10:41;98314.84;;;8.11;100.00
42591;BME280;28218;53.342;-6.216;2023-01-08T03:13:17;98323.34;;;8.07;100.00
42591;BME280;28218;53.342;-6.216;2023-01-08T03:15:51;98318.13;;;8.07;100.00
42591;BME280;28218;53.342;-6.216;2023-01-08T03:18:27;98316.50;;;8.06;100.00
42591;BME280;28218;53.342;-6.216;2023-01-08T03:20:56;98321.94;;;8.04;100.00
42591;BME280;28218;53.342;-6.216;2023-01-08T03:23:25;98319.53;;;8.03;100.00
42591;BME280;28218;53.342;-6.216;2023-01-08T03:25:55;98330.25;;;8.01;100.00
42591;BME280;28218;53.342;-6.216;2023-01-08T03:28:29;98328.25;;;7.97;100.00
42591;BME280;28218;53.342;-6.216;2023-01-08T03:31:00;98330.06;;;7.96;100.00
42591;BME280;28218;53.342;-6.216;2023-01-08T03:33:30;98336.13;;;7.97;100.00
42591;BME280;28218;53.342;-6.216;2023-01-08T03:36:00;98343.19;;;7.96;100.00
42591;BME280;28218;53.342;-6.216;2023-01-08T03:38:33;98341.56;;;7.95;100.00
42591;BME280;28218;53.342;-6.216;2023-01-08T03:41:08;98337.50;;;7.99;100.00
42591;BME280;28218;53.342;-6.216;2023-01-08T03:43:39;98362.16;;;7.91;100.00
42591;BME280;28218;53.342;-6.216;2023-01-08T03:46:10;98356.94;;;7.91;100.00
42591;BME280;28218;53.342;-6.216;2023-01-08T03:48:41;98354.50;;;7.90;100.00
42591;BME280;28218;53.342;-6.216;2023-01-08T03:51:10;98357.72;;;7.92;100.00
42591;BME280;28218;53.342;-6.216;2023-01-08T03:53:38;98364.34;;;7.94;100.00
42591;BME280;28218;53.342;-6.216;2023-01-08T03:56:07;98348.63;;;7.94;100.00
42591;BME280;28218;53.342;-6.216;2023-01-08T03:58:35;98364.56;;;7.93;100.00
42591;BME280;28218;53.342;-6.216;2023-01-08T04:01:05;98352.88;;;7.96;100.00
42591;BME280;28218;53.342;-6.216;2023-01-08T04:03:33;98341.56;;;7.95;100.00
42591;BME280;28218;53.342;-6.216;2023-01-08T04:06:02;98342.00;;;7.92;100.00
42591;BME280;28218;53.342;-6.216;2023-01-08T04:08:30;98335.09;;;7.98;100.00
42591;BME280;28218;53.342;-6.216;2023-01-08T04:10:58;98342.56;;;7.94;100.00
42591;BME280;28218;53.342;-6.216;2023-01-08T04:13:26;98349.66;;;7.93;100.00
42591;BME280;28218;53.342;-6.216;2023-01-08T04:15:55;98339.16;;;7.93;100.00
42591;BME280;28218;53.342;-6.216;2023-01-08T04:18:25;98334.34;;;7.90;100.00
42591;BME280;28218;53.342;-6.216;2023-01-08T04:20:53;98350.88;;;7.91;100.00
42591;BME280;28218;53.342;-6.216;2023-01-08T04:23:22;98342.00;;;7.92;100.00
42591;BME280;28218;53.342;-6.216;2023-01-08T04:25:50;98351.25;;;7.94;100.00
42591;BME280;28218;53.342;-6.216;2023-01-08T04:28:19;98364.16;;;7.96;100.00
42591;BME280;28218;53.342;-6.216;2023-01-08T04:30:47;98350.44;;;7.94;100.00
42591;BME280;28218;53.342;-6.216;2023-01-08T04:33:16;98367.59;;;7.97;100.00
42591;BME280;28218;53.342;-6.216;2023-01-08T04:35:45;98359.72;;;7.97;100.00
42591;BME280;28218;53.342;-6.216;2023-01-08T04:38:13;98347.00;;;8.00;100.00
42591;BME280;28218;53.342;-6.216;2023-01-08T04:40:42;98359.50;;;7.98;100.00
42591;BME280;28218;53.342;-6.216;2023-01-08T04:43:10;98364.75;;;8.05;100.00
42591;BME280;28218;53.342;-6.216;2023-01-08T04:45:38;98358.88;;;8.03;100.00
42591;BME280;28218;53.342;-6.216;2023-01-08T04:48:06;98368.34;;;8.04;100.00
42591;BME280;28218;53.342;-6.216;2023-01-08T04:50:34;98377.84;;;8.05;100.00
42591;BME280;28218;53.342;-6.216;2023-01-08T04:53:04;98371.41;;;8.01;100.00
42591;BME280;28218;53.342;-6.216;2023-01-08T04:55:32;98374.03;;;8.01;100.00
42591;BME280;28218;53.342;-6.216;2023-01-08T04:58:01;98376.44;;;8.02;100.00
42591;BME280;28218;53.342;-6.216;2023-01-08T05:00:29;98371.19;;;8.02;100.00
42591;BME280;28218;53.342;-6.216;2023-01-08T05:02:58;98353.84;;;8.01;100.00
42591;BME280;28218;53.342;-6.216;2023-01-08T05:05:26;98353.06;;;8.01;100.00
42591;BME280;28218;53.342;-6.216;2023-01-08T05:07:54;98339.50;;;8.04;100.00
42591;BME280;28218;53.342;-6.216;2023-01-08T05:10:24;98342.34;;;8.02;100.00
42591;BME280;28218;53.342;-6.216;2023-01-08T05:12:57;98334.88;;;8.06;100.00
42591;BME280;28218;53.342;-6.216;2023-01-08T05:15:25;98311.25;;;8.06;100.00
42591;BME280;28218;53.342;-6.216;2023-01-08T05:17:58;98303.78;;;8.09;100.00
42591;BME280;28218;53.342;-6.216;2023-01-08T05:20:26;98290.28;;;8.06;100.00
42591;BME280;28218;53.342;-6.216;2023-01-08T05:22:55;98279.97;;;8.11;100.00
42591;BME280;28218;53.342;-6.216;2023-01-08T05:25:25;98280.75;;;8.11;100.00
42591;BME280;28218;53.342;-6.216;2023-01-08T05:27:53;98274.88;;;8.16;100.00
42591;BME280;28218;53.342;-6.216;2023-01-08T05:30:22;98293.47;;;8.14;100.00
42591;BME280;28218;53.342;-6.216;2023-01-08T05:32:50;98284.34;;;8.17;100.00
42591;BME280;28218;53.342;-6.216;2023-01-08T05:35:18;98292.59;;;8.20;100.00
42591;BME280;28218;53.342;-6.216;2023-01-08T05:37:47;98297.44;;;8.24;100.00
42591;BME280;28218;53.342;-6.216;2023-01-08T05:40:15;98297.22;;;8.25;100.00
42591;BME280;28218;53.342;-6.216;2023-01-08T05:42:44;98291.56;;;8.28;100.00
42591;BME280;28218;53.342;-6.216;2023-01-08T05:45:12;98296.19;;;8.26;100.00
42591;BME280;28218;53.342;-6.216;2023-01-08T05:47:41;98292.94;;;8.31;100.00
42591;BME280;28218;53.342;-6.216;2023-01-08T05:50:09;98292.94;;;8.31;100.00
42591;BME280;28218;53.342;-6.216;2023-01-08T05:52:38;98288.72;;;8.30;100.00
42591;BME280;28218;53.342;-6.216;2023-01-08T05:55:06;98301.22;;;8.28;100.00
42591;BME280;28218;53.342;-6.216;2023-01-08T05:57:35;98296.81;;;8.28;100.00
42591;BME280;28218;53.342;-6.216;2023-01-08T06:00:06;98292.19;;;8.24;100.00
42591;BME280;28218;53.342;-6.216;2023-01-08T06:02:35;98284.53;;;8.22;100.00
42591;BME280;28218;53.342;-6.216;2023-01-08T06:05:04;98273.44;;;8.20;100.00
42591;BME280;28218;53.342;-6.216;2023-01-08T06:07:32;98274.66;;;8.17;100.00
42591;BME280;28218;53.342;-6.216;2023-01-08T06:10:01;98261.19;;;8.14;100.00
42591;BME280;28218;53.342;-6.216;2023-01-08T06:12:29;98254.75;;;8.10;100.00
42591;BME280;28218;53.342;-6.216;2023-01-08T06:14:57;98259.63;;;8.06;100.00
42591;BME280;28218;53.342;-6.216;2023-01-08T06:17:26;98252.78;;;8.05;100.00
42591;BME280;28218;53.342;-6.216;2023-01-08T06:19:55;98260.25;;;8.02;100.00
42591;BME280;28218;53.342;-6.216;2023-01-08T06:22:23;98263.50;;;7.97;100.00
42591;BME280;28218;53.342;-6.216;2023-01-08T06:24:51;98268.13;;;7.95;100.00
42591;BME280;28218;53.342;-6.216;2023-01-08T06:27:19;98274.84;;;7.91;100.00
42591;BME280;28218;53.342;-6.216;2023-01-08T06:29:47;98279.47;;;7.96;100.00
42591;BME280;28218;53.342;-6.216;2023-01-08T06:32:15;98268.59;;;7.92;100.00
42591;BME280;28218;53.342;-6.216;2023-01-08T06:34:45;98264.13;;;7.92;100.00
42591;BME280;28218;53.342;-6.216;2023-01-08T06:37:13;98262.09;;;7.94;100.00
42591;BME280;28218;53.342;-6.216;2023-01-08T06:39:42;98263.56;;;7.90;100.00
42591;BME280;28218;53.342;-6.216;2023-01-08T06:42:10;98261.09;;;7.96;100.00
42591;BME280;28218;53.342;-6.216;2023-01-08T06:44:38;98263.28;;;7.99;100.00
42591;BME280;28218;53.342;-6.216;2023-01-08T06:47:06;98265.31;;;7.97;100.00
42591;BME280;28218;53.342;-6.216;2023-01-08T06:49:34;98261.28;;;8.01;100.00
42591;BME280;28218;53.342;-6.216;2023-01-08T06:52:04;98262.06;;;8.01;100.00
42591;BME280;28218;53.342;-6.216;2023-01-08T06:54:32;98260.09;;;7.97;100.00
42591;BME280;28218;53.342;-6.216;2023-01-08T06:57:00;98263.91;;;7.94;100.00
42591;BME280;28218;53.342;-6.216;2023-01-08T06:59:28;98252.41;;;7.95;100.00
42591;BME280;28218;53.342;-6.216;2023-01-08T07:01:57;98262.88;;;7.95;100.00
42591;BME280;28218;53.342;-6.216;2023-01-08T07:04:25;98249.19;;;7.93;100.00
42591;BME280;28218;53.342;-6.216;2023-01-08T07:06:53;98247.38;;;7.93;100.00
42591;BME280;28218;53.342;-6.216;2023-01-08T07:09:23;98240.53;;;7.92;100.00
42591;BME280;28218;53.342;-6.216;2023-01-08T07:11:51;98252.84;;;7.92;100.00
42591;BME280;28218;53.342;-6.216;2023-01-08T07:14:19;98254.44;;;7.93;100.00
42591;BME280;28218;53.342;-6.216;2023-01-08T07:16:48;98248.41;;;7.92;100.00
42591;BME280;28218;53.342;-6.216;2023-01-08T07:19:16;98248.41;;;7.92;100.00
42591;BME280;28218;53.342;-6.216;2023-01-08T07:21:44;98239.09;;;7.97;100.00
42591;BME280;28218;53.342;-6.216;2023-01-08T07:24:12;98231.81;;;7.99;100.00
42591;BME280;28218;53.342;-6.216;2023-01-08T07:26:42;98240.47;;;7.99;100.00
42591;BME280;28218;53.342;-6.216;2023-01-08T07:29:10;98237.06;;;7.99;100.00
42591;BME280;28218;53.342;-6.216;2023-01-08T07:31:38;98243.91;;;8.00;100.00
42591;BME280;28218;53.342;-6.216;2023-01-08T07:34:06;98244.94;;;7.99;100.00
42591;BME280;28218;53.342;-6.216;2023-01-08T07:36:35;98258.47;;;7.96;100.00
42591;BME280;28218;53.342;-6.216;2023-01-08T07:39:03;98249.59;;;7.97;100.00
42591;BME280;28218;53.342;-6.216;2023-01-08T07:41:31;98235.84;;;8.01;100.00
42591;BME280;28218;53.342;-6.216;2023-01-08T07:44:01;98245.09;;;8.04;100.00
42591;BME280;28218;53.342;-6.216;2023-01-08T07:46:29;98239.66;;;8.05;100.00
42591;BME280;28218;53.342;-6.216;2023-01-08T07:48:57;98242.69;;;8.02;100.00
42591;BME280;28218;53.342;-6.216;2023-01-08T07:51:25;98240.88;;;8.03;100.00
42591;BME280;28218;53.342;-6.216;2023-01-08T07:53:55;98222.19;;;7.92;100.00
42591;BME280;28218;53.342;-6.216;2023-01-08T07:56:23;98215.75;;;7.88;100.00
42591;BME280;28218;53.342;-6.216;2023-01-08T07:58:52;98209.13;;;7.86;100.00
42591;BME280;28218;53.342;-6.216;2023-01-08T08:01:22;98208.91;;;7.87;100.00
42591;BME280;28218;53.342;-6.216;2023-01-08T08:03:52;98207.50;;;7.85;100.00
42591;BME280;28218;53.342;-6.216;2023-01-08T08:06:20;98204.88;;;7.85;100.00
42591;BME280;28218;53.342;-6.216;2023-01-08T08:08:48;98191.19;;;7.83;100.00
42591;BME280;28218;53.342;-6.216;2023-01-08T08:11:16;98189.38;;;7.83;100.00
42591;BME280;28218;53.342;-6.216;2023-01-08T08:13:44;98192.00;;;7.83;100.00
42591;BME280;28218;53.342;-6.216;2023-01-08T08:16:13;98186.75;;;7.83;100.00
42591;BME280;28218;53.342;-6.216;2023-01-08T08:18:42;98183.53;;;7.81;100.00
42591;BME280;28218;53.342;-6.216;2023-01-08T08:21:11;98177.47;;;7.81;100.00
42591;BME280;28218;53.342;-6.216;2023-01-08T08:23:39;98190.22;;;7.77;100.00
42591;BME280;28218;53.342;-6.216;2023-01-08T08:26:07;98189.44;;;7.77;100.00
42591;BME280;28218;53.342;-6.216;2023-01-08T08:28:35;98188.59;;;7.76;100.00
42591;BME280;28218;53.342;-6.216;2023-01-08T08:31:03;98189.63;;;7.75;100.00
42591;BME280;28218;53.342;-6.216;2023-01-08T08:33:32;98195.88;;;7.74;100.00
42591;BME280;28218;53.342;-6.216;2023-01-08T08:36:01;98201.75;;;7.69;100.00
42591;BME280;28218;53.342;-6.216;2023-01-08T08:38:29;98195.13;;;7.67;100.00
42591;BME280;28218;53.342;-6.216;2023-01-08T08:40:58;98197.56;;;7.62;100.00
42591;BME280;28218;53.342;-6.216;2023-01-08T08:43:27;98196.91;;;7.66;100.00
42591;BME280;28218;53.342;-6.216;2023-01-08T08:45:55;98196.91;;;7.66;100.00
42591;BME280;28218;53.342;-6.216;2023-01-08T08:48:24;98189.28;;;7.65;100.00
42591;BME280;28218;53.342;-6.216;2023-01-08T08:50:53;98183.66;;;7.61;100.00
42591;BME280;28218;53.342;-6.216;2023-01-08T08:53:22;98178.22;;;7.63;100.00
42591;BME280;28218;53.342;-6.216;2023-01-08T08:55:53;98178.84;;;7.58;100.00
42591;BME280;28218;53.342;-6.216;2023-01-08T08:58:21;98179.66;;;7.59;100.00
42591;BME280;28218;53.342;-6.216;2023-01-08T09:00:49;98182.69;;;7.56;100.00
42591;BME280;28218;53.342;-6.216;2023-01-08T09:03:17;98176.59;;;7.62;100.00
42591;BME280;28218;53.342;-6.216;2023-01-08T09:05:46;98180.03;;;7.62;100.00
42591;BME280;28218;53.342;-6.216;2023-01-08T09:08:14;98180.22;;;7.61;100.00
42591;BME280;28218;53.342;-6.216;2023-01-08T09:10:43;98176.59;;;7.62;100.00
42591;BME280;28218;53.342;-6.216;2023-01-08T09:13:11;98185.91;;;7.58;100.00
42591;BME280;28218;53.342;-6.216;2023-01-08T09:15:39;98177.41;;;7.62;100.00
42591;BME280;28218;53.342;-6.216;2023-01-08T09:18:07;98174.34;;;7.65;100.00
42591;BME280;28218;53.342;-6.216;2023-01-08T09:20:36;98184.84;;;7.65;100.00
42591;BME280;28218;53.342;-6.216;2023-01-08T09:23:04;98185.22;;;7.69;100.00
42591;BME280;28218;53.342;-6.216;2023-01-08T09:25:32;98185.22;;;7.69;100.00
42591;BME280;28218;53.342;-6.216;2023-01-08T09:28:05;98190.88;;;7.66;100.00
42591;BME280;28218;53.342;-6.216;2023-01-08T09:30:33;98195.13;;;7.67;100.00
42591;BME280;28218;53.342;-6.216;2023-01-08T09:33:02;98190.09;;;7.65;100.00
42591;BME280;28218;53.342;-6.216;2023-01-08T09:35:32;98196.56;;;7.63;100.00
42591;BME280;28218;53.342;-6.216;2023-01-08T09:38:00;98191.50;;;7.61;100.00
42591;BME280;28218;53.342;-6.216;2023-01-08T09:40:32;98197.38;;;7.63;100.00
42591;BME280;28218;53.342;-6.216;2023-01-08T09:43:04;98194.13;;;7.61;100.00
42591;BME280;28218;53.342;-6.216;2023-01-08T09:45:36;98208.25;;;7.60;100.00
42591;BME280;28218;53.342;-6.216;2023-01-08T09:48:11;98203.81;;;7.61;100.00
42591;BME280;28218;53.342;-6.216;2023-01-08T09:50:40;98195.56;;;7.57;100.00
42591;BME280;28218;53.342;-6.216;2023-01-08T09:53:12;98194.19;;;7.55;100.00
42591;BME280;28218;53.342;-6.216;2023-01-08T09:55:41;98197.22;;;7.52;100.00
42591;BME280;28218;53.342;-6.216;2023-01-08T09:58:21;98196.00;;;7.54;100.00
42591;BME280;28218;53.342;-6.216;2023-01-08T10:00:51;98187.34;;;7.54;100.00
42591;BME280;28218;53.342;-6.216;2023-01-08T10:03:24;98197.03;;;7.53;100.00
42591;BME280;28218;53.342;-6.216;2023-01-08T10:05:56;98198.63;;;7.54;100.00
42591;BME280;28218;53.342;-6.216;2023-01-08T10:08:24;98192.19;;;7.50;100.00
42591;BME280;28218;53.342;-6.216;2023-01-08T10:10:52;98189.97;;;7.54;100.00
42591;BME280;28218;53.342;-6.216;2023-01-08T10:13:22;98204.50;;;7.50;100.00
42591;BME280;28218;53.342;-6.216;2023-01-08T10:15:50;98202.25;;;7.53;100.00
42591;BME280;28218;53.342;-6.216;2023-01-08T10:18:20;98202.44;;;7.52;100.00
42591;BME280;28218;53.342;-6.216;2023-01-08T10:20:50;98202.25;;;7.53;100.00
42591;BME280;28218;53.342;-6.216;2023-01-08T10:23:20;98201.00;;;7.62;100.00
42591;BME280;28218;53.342;-6.216;2023-01-08T10:25:52;98201.75;;;7.69;100.00
42591;BME280;28218;53.342;-6.216;2023-01-08T10:28:23;98212.19;;;7.76;100.00
42591;BME280;28218;53.342;-6.216;2023-01-08T10:30:53;98198.84;;;7.84;100.00
42591;BME280;28218;53.342;-6.216;2023-01-08T10:33:28;98205.25;;;7.88;100.00
42591;BME280;28218;53.342;-6.216;2023-01-08T10:35:59;98195.78;;;7.87;100.00
42591;BME280;28218;53.342;-6.216;2023-01-08T10:38:30;98204.63;;;7.93;100.00
42591;BME280;28218;53.342;-6.216;2023-01-08T10:41:00;98191.69;;;7.98;100.00
42591;BME280;28218;53.342;-6.216;2023-01-08T10:43:33;98205.19;;;8.02;100.00
42591;BME280;28218;53.342;-6.216;2023-01-08T10:46:05;98201.94;;;8.00;100.00
42591;BME280;28218;53.342;-6.216;2023-01-08T10:48:37;98208.81;;;8.01;100.00
42591;BME280;28218;53.342;-6.216;2023-01-08T10:51:12;98211.44;;;8.01;100.00
42591;BME280;28218;53.342;-6.216;2023-01-08T10:53:41;98211.81;;;8.04;100.00
42591;BME280;28218;53.342;-6.216;2023-01-08T10:56:18;98212.00;;;8.09;100.00
42591;BME280;28218;53.342;-6.216;2023-01-08T10:58:48;98223.63;;;8.13;100.00
42591;BME280;28218;53.342;-6.216;2023-01-08T11:01:19;98222.84;;;8.13;100.00
42591;BME280;28218;53.342;-6.216;2023-01-08T11:03:50;98221.84;;;8.14;100.00
42591;BME280;28218;53.342;-6.216;2023-01-08T11:06:21;98222.81;;;8.19;100.00
42591;BME280;28218;53.342;-6.216;2023-01-08T11:08:51;98235.13;;;8.19;100.00
42591;BME280;28218;53.342;-6.216;2023-01-08T11:11:20;98232.38;;;8.32;100.00
42591;BME280;28218;53.342;-6.216;2023-01-08T11:13:55;98230.78;;;8.31;100.00
42591;BME280;28218;53.342;-6.216;2023-01-08T11:16:33;98241.66;;;8.35;100.00
42591;BME280;28218;53.342;-6.216;2023-01-08T11:19:03;98239.00;;;8.41;100.00
42591;BME280;28218;53.342;-6.216;2023-01-08T11:21:32;98245.81;;;8.49;100.00
42591;BME280;28218;53.342;-6.216;2023-01-08T11:24:16;98234.09;;;8.52;100.00
42591;BME280;28218;53.342;-6.216;2023-01-08T11:26:47;98245.47;;;8.64;100.00
42591;BME280;28218;53.342;-6.216;2023-01-08T11:29:22;98241.00;;;8.64;100.00
42591;BME280;28218;53.342;-6.216;2023-01-08T11:31:58;98245.78;;;8.74;100.00
42591;BME280;28218;53.342;-6.216;2023-01-08T11:34:33;98235.88;;;8.76;100.00
42591;BME280;28218;53.342;-6.216;2023-01-08T11:37:09;98232.94;;;8.84;100.00
42591;BME280;28218;53.342;-6.216;2023-01-08T11:39:40;98238.00;;;8.86;100.00
42591;BME280;28218;53.342;-6.216;2023-01-08T11:42:19;98237.34;;;8.90;100.00
42591;BME280;28218;53.342;-6.216;2023-01-08T11:45:05;98239.53;;;8.93;100.00
42591;BME280;28218;53.342;-6.216;2023-01-08T11:47:52;98244.06;;;9.05;100.00
42591;BME280;28218;53.342;-6.216;2023-01-08T11:50:26;98233.94;;;9.08;100.00
42591;BME280;28218;53.342;-6.216;2023-01-08T11:53:09;98230.47;;;9.08;100.00
42591;BME280;28218;53.342;-6.216;2023-01-08T11:55:51;98233.69;;;9.10;100.00
42591;BME280;28218;53.342;-6.216;2023-01-08T11:58:31;98231.22;;;8.96;100.00
42591;BME280;28218;53.342;-6.216;2023-01-08T12:01:26;98249.16;;;8.81;100.00
42591;BME280;28218;53.342;-6.216;2023-01-08T12:04:16;98245.31;;;8.59;100.00
42591;BME280;28218;53.342;-6.216;2023-01-08T12:06:49;98247.41;;;8.75;100.00
42591;BME280;28218;53.342;-6.216;2023-01-08T12:09:33;98242.63;;;8.65;100.00
42591;BME280;28218;53.342;-6.216;2023-01-08T12:12:10;98236.16;;;8.68;100.00
42591;BME280;28218;53.342;-6.216;2023-01-08T12:14:51;98239.41;;;8.63;100.00
42591;BME280;28218;53.342;-6.216;2023-01-08T12:17:39;98232.31;;;8.45;100.00
42591;BME280;28218;53.342;-6.216;2023-01-08T12:20:18;98227.84;;;8.46;100.00
42591;BME280;28218;53.342;-6.216;2023-01-08T12:22:55;98225.84;;;8.48;100.00
42591;BME280;28218;53.342;-6.216;2023-01-08T12:25:48;98213.78;;;8.40;100.00
42591;BME280;28218;53.342;-6.216;2023-01-08T12:28:39;98211.75;;;8.42;100.00
42591;BME280;28218;53.342;-6.216;2023-01-08T12:31:30;98212.78;;;8.35;100.00
42591;BME280;28218;53.342;-6.216;2023-01-08T12:34:10;98200.47;;;8.35;100.00
42591;BME280;28218;53.342;-6.216;2023-01-08T12:36:41;98199.84;;;8.40;100.00
42591;BME280;28218;53.342;-6.216;2023-01-08T12:39:16;98195.22;;;8.35;100.00
42591;BME280;28218;53.342;-6.216;2023-01-08T12:41:51;98192.22;;;8.32;100.00
42591;BME280;28218;53.342;-6.216;2023-01-08T12:44:24;98195.88;;;8.31;100.00
42591;BME280;28218;53.342;-6.216;2023-01-08T12:46:54;98197.28;;;8.33;100.00
42591;BME280;28218;53.342;-6.216;2023-01-08T12:49:28;98193.63;;;8.34;100.00
42591;BME280;28218;53.342;-6.216;2023-01-08T12:52:02;98197.66;;;8.37;100.00
42591;BME280;28218;53.342;-6.216;2023-01-08T12:54:41;98190.97;;;8.41;100.00
42591;BME280;28218;53.342;-6.216;2023-01-08T12:57:15;98187.97;;;8.37;100.00
42591;BME280;28218;53.342;-6.216;2023-01-08T12:59:51;98203.00;;;8.49;100.00
42591;BME280;28218;53.342;-6.216;2023-01-08T13:02:29;98199.97;;;8.52;100.00
42591;BME280;28218;53.342;-6.216;2023-01-08T13:05:13;98195.88;;;8.56;100.00
42591;BME280;28218;53.342;-6.216;2023-01-08T13:07:44;98203.16;;;8.54;100.00
42591;BME280;28218;53.342;-6.216;2023-01-08T13:10:20;98196.09;;;8.54;100.00